Time;durP1;ratioP1;P1;durP2;ratioP2;P2;SDS_P1;SDS_P2;PMS_P1;PMS_P2;Temp;Humidity;BMP_temperature;BMP_pressure;BME280_temperature;BME280_humidity;BME280_pressure;Samples;Min_cycle;Max_cycle;Signal;HPM_P1;HPM_P2
2023/03/06 00:02:33;;;;;;;1.90;0.70;;;;;;;20.12;31.29;100853.38;16106500;19;130774;-44
2023/03/06 00:07:54;;;;;;;1.50;0.80;;;;;;;20.08;30.87;100837.50;16109317;19;130479;-44
2023/03/06 00:13:19;;;;;;;2.50;0.68;;;;;;;20.04;31.19;100839.13;16112058;19;130661;-44
2023/03/06 00:18:42;;;;;;;0.87;0.70;;;;;;;20.01;31.04;100831.31;16110361;19;129522;-41
2023/03/06 00:24:04;;;;;;;1.50;0.70;;;;;;;19.95;31.27;100835.94;16111701;19;130385;-44
2023/03/06 00:29:26;;;;;;;2.88;0.80;;;;;;;19.94;31.41;100828.69;16114350;19;130794;-44
2023/03/06 00:34:49;;;;;;;1.50;0.60;;;;;;;19.90;31.18;100821.97;16113863;19;130407;-43
2023/03/06 00:40:14;;;;;;;1.15;0.40;;;;;;;19.86;31.03;100818.06;16115489;19;129691;-44
2023/03/06 00:45:36;;;;;;;2.47;0.77;;;;;;;19.82;31.00;100809.38;16111982;19;131260;-44
2023/03/06 00:50:57;;;;;;;5.40;0.70;;;;;;;19.80;31.43;100811.59;16113857;19;132135;-44
2023/03/06 00:56:19;;;;;;;1.00;0.82;;;;;;;19.77;31.09;100806.56;16111017;19;129352;-42
2023/03/06 01:01:41;;;;;;;1.35;0.60;;;;;;;19.71;31.24;100802.88;16113901;19;129592;-41
2023/03/06 01:07:03;;;;;;;1.55;0.90;;;;;;;19.68;31.44;100800.59;16104556;19;131263;-43
2023/03/06 01:12:25;;;;;;;1.48;0.82;;;;;;;19.64;31.26;100803.06;16110176;19;131019;-47
2023/03/06 01:17:50;;;;;;;1.52;1.00;;;;;;;19.60;31.29;100790.78;16113030;19;131076;-42
2023/03/06 01:23:12;;;;;;;2.70;1.00;;;;;;;19.57;31.20;100790.44;16111036;19;129475;-46
2023/03/06 01:28:36;;;;;;;1.83;0.70;;;;;;;19.54;31.37;100780.72;16113537;19;130652;-47
2023/03/06 01:33:58;;;;;;;0.85;0.60;;;;;;;19.52;31.35;100774.56;16104648;19;130207;-46
2023/03/06 01:39:19;;;;;;;1.33;0.70;;;;;;;19.49;31.11;100775.94;16102156;19;129559;-44
2023/03/06 01:45:16;;;;;;;1.65;0.30;;;;;;;19.45;31.13;100766.44;16119414;19;131875;-42
2023/03/06 01:50:38;;;;;;;0.65;0.65;;;;;;;19.43;31.54;100767.78;16118055;19;129780;-43
2023/03/06 01:56:00;;;;;;;0.57;0.50;;;;;;;19.41;31.25;100758.88;16113067;19;130634;-41
2023/03/06 02:01:22;;;;;;;0.47;0.40;;;;;;;19.36;31.57;100757.72;16113721;19;129432;-46
2023/03/06 02:06:44;;;;;;;0.68;0.50;;;;;;;19.35;31.27;100758.81;16113366;19;130161;-43
2023/03/06 02:12:10;;;;;;;1.00;0.55;;;;;;;19.32;31.38;100756.53;16118536;19;129729;-46
2023/03/06 02:17:33;;;;;;;1.63;0.68;;;;;;;19.30;31.18;100761.50;16110375;19;132054;-42
2023/03/06 02:23:05;;;;;;;0.63;0.60;;;;;;;19.28;31.46;100757.28;16117795;19;134471;-47
2023/03/06 02:28:27;;;;;;;0.70;0.60;;;;;;;19.25;31.30;100738.41;16120897;19;130202;-44
2023/03/06 02:34:02;;;;;;;1.02;0.73;;;;;;;19.23;31.43;100735.88;16121137;19;132002;-42
2023/03/06 02:39:28;;;;;;;0.50;0.50;;;;;;;19.20;31.18;100728.06;16120424;19;129800;-42
2023/03/06 02:44:52;;;;;;;0.55;0.55;;;;;;;19.18;31.19;100727.47;16123544;19;130585;-42
2023/03/06 02:50:14;;;;;;;0.50;0.50;;;;;;;19.16;31.62;100718.56;16117358;19;130663;-42
2023/03/06 02:55:36;;;;;;;0.43;0.40;;;;;;;19.13;31.39;100722.69;16123564;19;130429;-47
2023/03/06 03:00:58;;;;;;;0.85;0.50;;;;;;;19.12;31.68;100717.38;16122411;19;130838;-43
2023/03/06 03:06:20;;;;;;;0.93;0.63;;;;;;;19.11;31.44;100707.38;16123888;19;131296;-43
2023/03/06 03:11:42;;;;;;;1.23;0.50;;;;;;;19.07;31.25;100694.06;16117976;19;130901;-46
2023/03/06 03:17:05;;;;;;;0.60;0.40;;;;;;;19.06;31.51;100692.38;16118822;19;130596;-42
2023/03/06 03:22:27;;;;;;;1.02;0.80;;;;;;;19.04;31.39;100686.25;16117917;19;131509;-45
2023/03/06 03:27:49;;;;;;;0.70;0.50;;;;;;;19.02;31.64;100682.88;16122127;19;129922;-46
2023/03/06 03:33:11;;;;;;;1.90;0.40;;;;;;;19.01;31.66;100667.34;16117873;19;131031;-42
2023/03/06 03:38:34;;;;;;;0.40;0.40;;;;;;;18.99;31.28;100675.06;16117867;19;129835;-42
2023/03/06 03:43:55;;;;;;;1.05;0.60;;;;;;;18.98;31.35;100669.78;16116295;19;129839;-43
2023/03/06 03:49:17;;;;;;;0.50;0.50;;;;;;;18.97;31.75;100665.31;16114081;19;130046;-46
2023/03/06 03:54:39;;;;;;;0.65;0.50;;;;;;;18.94;31.25;100655.59;16116832;19;130351;-43
2023/03/06 04:00:01;;;;;;;0.50;0.40;;;;;;;18.91;31.52;100647.78;16113480;19;129928;-42
2023/03/06 04:05:23;;;;;;;0.95;0.60;;;;;;;18.89;31.67;100642.47;16113979;19;131989;-43
2023/03/06 04:10:45;;;;;;;0.50;0.50;;;;;;;18.88;31.37;100634.44;16111166;19;129573;-47
2023/03/06 04:16:07;;;;;;;0.60;0.45;;;;;;;18.85;31.30;100641.31;16121203;19;129820;-41
2023/03/06 04:21:28;;;;;;;0.73;0.40;;;;;;;18.84;31.41;100623.03;16118543;19;132572;-43
2023/03/06 04:26:50;;;;;;;0.75;0.40;;;;;;;18.83;31.71;100623.28;16119061;19;130161;-44
2023/03/06 04:32:12;;;;;;;0.50;0.40;;;;;;;18.81;31.55;100617.97;16116692;19;130677;-42
2023/03/06 04:37:34;;;;;;;0.50;0.30;;;;;;;18.80;31.28;100610.75;16115389;19;130322;-43
2023/03/06 04:42:57;;;;;;;0.50;0.40;;;;;;;18.79;31.52;100611.03;16118183;19;131286;-44
2023/03/06 04:48:18;;;;;;;0.50;0.50;;;;;;;18.75;31.28;100605.16;16115188;19;130092;-41
2023/03/06 04:53:40;;;;;;;0.65;0.60;;;;;;;18.73;31.37;100616.47;16113476;19;129587;-42
2023/03/06 04:59:03;;;;;;;0.65;0.40;;;;;;;18.72;31.43;100614.78;16107005;19;131920;-41
2023/03/06 05:04:25;;;;;;;0.50;0.40;;;;;;;18.71;31.48;100612.28;16117722;19;129511;-49
2023/03/06 05:09:47;;;;;;;0.50;0.50;;;;;;;18.69;31.45;100607.00;16111837;19;130685;-42
2023/03/06 05:15:09;;;;;;;0.77;0.47;;;;;;;18.69;31.41;100601.47;16110915;19;129991;-41
2023/03/06 05:20:32;;;;;;;0.68;0.60;;;;;;;18.67;31.40;100594.50;16123242;19;129595;-42
2023/03/06 05:25:54;;;;;;;0.68;0.60;;;;;;;18.65;31.27;100597.53;16130703;19;132566;-45
2023/03/06 05:31:16;;;;;;;0.57;0.50;;;;;;;18.62;31.32;100598.03;16129359;19;129352;-42
2023/03/06 05:36:38;;;;;;;0.60;0.60;;;;;;;18.61;31.70;100591.66;16124901;19;130507;-42
2023/03/06 05:42:00;;;;;;;0.70;0.52;;;;;;;18.58;31.44;100591.34;16125542;19;129790;-43
2023/03/06 05:47:21;;;;;;;0.63;0.60;;;;;;;18.58;31.44;100596.88;16123120;19;131093;-45
2023/03/06 05:52:43;;;;;;;0.73;0.60;;;;;;;18.56;31.33;100596.28;16122562;19;130005;-43
2023/03/06 05:58:05;;;;;;;0.70;0.60;;;;;;;18.54;31.30;100602.06;16125846;19;129678;-44
2023/03/06 06:03:26;;;;;;;1.20;0.60;;;;;;;18.53;31.76;100599.56;16122926;19;130672;-42
2023/03/06 06:08:48;;;;;;;0.50;0.50;;;;;;;18.63;31.49;100604.44;16126789;19;130630;-46
2023/03/06 06:14:10;;;;;;;0.90;0.50;;;;;;;19.02;31.22;100602.47;16121339;19;133011;-42
2023/03/06 06:19:32;;;;;;;1.85;0.73;;;;;;;19.44;30.68;100603.84;16119184;19;130199;-43
2023/03/06 06:24:54;;;;;;;2.33;0.60;;;;;;;19.83;30.56;100600.09;16125723;19;129750;-47
2023/03/06 06:30:16;;;;;;;1.98;0.80;;;;;;;20.19;30.15;100602.41;16125724;19;129641;-48
2023/03/06 06:35:38;;;;;;;3.03;0.73;;;;;;;20.37;29.44;100595.59;16123076;19;130482;-43
2023/03/06 06:41:02;;;;;;;1.40;0.60;;;;;;;20.44;29.32;100590.63;16124593;19;131104;-42
2023/03/06 06:46:44;;;;;;;1.10;0.70;;;;;;;20.42;29.48;100595.63;16122455;19;131158;-45
2023/03/06 06:52:26;;;;;;;3.20;0.80;;;;;;;20.35;29.51;100595.88;16120319;19;131168;-46
2023/03/06 06:57:48;;;;;;;2.58;0.73;;;;;;;20.22;29.65;100591.59;16121290;19;129530;-44
2023/03/06 07:03:13;;;;;;;2.90;0.93;;;;;;;20.13;29.79;100593.19;16118779;19;131645;-41
2023/03/06 07:08:35;;;;;;;1.73;0.80;;;;;;;20.02;29.85;100591.41;16124316;19;129679;-43
2023/03/06 07:13:57;;;;;;;3.45;1.15;;;;;;;19.93;30.39;100594.66;16125946;19;129672;-45
2023/03/06 07:19:18;;;;;;;6.60;1.10;;;;;;;19.84;30.29;100590.66;16122359;19;129578;-43
2023/03/06 07:24:40;;;;;;;4.25;1.00;;;;;;;19.76;30.54;100591.16;16122759;19;129695;-44
2023/03/06 07:30:03;;;;;;;6.53;1.40;;;;;;;19.67;30.72;100588.84;16119935;19;130289;-47
2023/03/06 07:35:25;;;;;;;4.75;0.88;;;;;;;19.61;30.41;100589.06;16120098;19;129262;-46
2023/03/06 07:40:49;;;;;;;5.63;1.02;;;;;;;19.57;30.39;100585.13;16124437;19;130246;-44
2023/03/06 07:46:12;;;;;;;8.43;1.70;;;;;;;19.52;30.56;100583.13;16121041;19;129495;-43
2023/03/06 07:51:34;;;;;;;5.45;1.33;;;;;;;19.59;30.63;100580.97;16119624;19;131998;-48
2023/03/06 07:56:56;;;;;;;7.85;1.20;;;;;;;19.83;30.42;100583.44;16119756;19;131001;-45
2023/03/06 08:02:18;;;;;;;6.57;1.20;;;;;;;20.26;30.51;100581.63;16120065;19;129940;-42
2023/03/06 08:07:40;;;;;;;4.03;1.00;;;;;;;20.76;30.01;100584.22;16119796;19;129361;-46
2023/03/06 08:13:02;;;;;;;5.97;1.10;;;;;;;21.26;29.45;100593.06;16119007;19;129667;-41
2023/03/06 08:18:25;;;;;;;2.53;1.10;;;;;;;21.72;29.12;100583.22;16118079;19;131857;-41
2023/03/06 08:23:47;;;;;;;8.27;1.45;;;;;;;22.09;28.71;100582.94;16122917;19;130552;-43
2023/03/06 08:29:10;;;;;;;5.60;0.98;;;;;;;22.29;28.39;100581.28;16119289;19;129678;-43
2023/03/06 08:34:32;;;;;;;1.85;0.90;;;;;;;22.26;28.52;100582.69;16117219;19;130057;-44
2023/03/06 08:39:54;;;;;;;3.10;1.45;;;;;;;22.11;28.44;100586.28;16117436;19;129833;-44
2023/03/06 08:45:16;;;;;;;6.15;1.55;;;;;;;21.89;28.46;100589.34;16092043;19;131666;-46
2023/03/06 08:50:39;;;;;;;6.30;1.48;;;;;;;21.68;28.73;100599.59;16110728;19;130359;-41
2023/03/06 08:56:02;;;;;;;7.35;1.50;;;;;;;21.48;28.71;100597.56;16113107;19;131767;-43
2023/03/06 09:01:27;;;;;;;3.03;1.13;;;;;;;21.29;28.77;100602.81;16112605;19;129771;-41
2023/03/06 09:06:52;;;;;;;3.72;1.55;;;;;;;21.09;29.24;100595.22;16115212;19;129412;-42
2023/03/06 09:12:16;;;;;;;7.82;1.33;;;;;;;20.93;29.18;100602.63;16114984;19;130112;-41
2023/03/06 09:17:38;;;;;;;8.98;1.63;;;;;;;20.77;29.45;100599.78;16113785;19;129443;-41
2023/03/06 09:23:00;;;;;;;7.40;1.38;;;;;;;20.64;29.41;100603.00;16113587;19;129220;-42
2023/03/06 09:28:22;;;;;;;3.05;1.10;;;;;;;20.50;29.93;100600.69;16114062;19;131555;-41
2023/03/06 09:33:45;;;;;;;2.83;1.40;;;;;;;20.39;30.06;100601.72;16110227;19;131189;-43
2023/03/06 09:39:08;;;;;;;5.07;0.90;;;;;;;20.29;30.03;100603.31;16109748;19;129675;-41
2023/03/06 09:44:33;;;;;;;2.83;1.08;;;;;;;20.19;30.36;100596.84;16114221;19;130445;-41
2023/03/06 09:50:04;;;;;;;2.40;0.98;;;;;;;20.09;30.23;100598.44;16114405;19;129750;-43
2023/03/06 09:55:31;;;;;;;2.33;1.17;;;;;;;19.99;30.27;100604.72;16113382;19;129406;-42
2023/03/06 10:01:02;;;;;;;5.53;1.10;;;;;;;19.90;30.23;100600.72;16113962;19;129565;-41
2023/03/06 10:06:30;;;;;;;3.38;1.17;;;;;;;19.82;30.33;100595.63;16117260;19;129926;-47
2023/03/06 10:11:57;;;;;;;3.00;1.20;;;;;;;19.74;30.32;100596.97;16125858;19;130502;-41
2023/03/06 10:17:22;;;;;;;3.33;1.20;;;;;;;19.66;30.57;100589.09;16129587;19;129944;-41
2023/03/06 10:23:04;;;;;;;3.10;1.10;;;;;;;19.60;30.84;100593.75;16120874;19;129642;-41
2023/03/06 10:28:48;;;;;;;2.28;0.98;;;;;;;19.55;30.73;100593.72;16127226;19;130408;-40
2023/03/06 10:34:14;;;;;;;1.58;0.88;;;;;;;19.61;30.63;100583.50;16123450;19;129528;-42
2023/03/06 10:39:38;;;;;;;2.08;0.70;;;;;;;19.83;30.58;100595.38;16123700;19;130401;-43
2023/03/06 10:45:11;;;;;;;2.80;1.02;;;;;;;20.14;30.05;100589.31;16129353;19;129574;-41
2023/03/06 10:50:33;;;;;;;2.50;0.77;;;;;;;20.40;29.82;100578.41;16126298;19;129406;-42
2023/03/06 10:55:58;;;;;;;2.85;1.00;;;;;;;20.62;29.82;100580.19;16125148;19;130660;-45
2023/03/06 11:01:21;;;;;;;6.67;1.10;;;;;;;20.81;29.62;100581.44;16123253;19;129630;-46
2023/03/06 11:06:43;;;;;;;4.40;1.25;;;;;;;20.97;29.22;100581.53;16122608;19;129593;-42
2023/03/06 11:12:26;;;;;;;9.85;1.48;;;;;;;21.06;29.26;100577.97;16123786;19;130210;-43
2023/03/06 11:17:56;;;;;;;7.72;1.30;;;;;;;21.05;29.29;100567.94;16122930;19;130468;-43
2023/03/06 11:23:18;;;;;;;4.70;1.23;;;;;;;21.00;29.34;100555.97;16122787;19;129956;-44
2023/03/06 11:29:03;;;;;;;7.18;1.13;;;;;;;20.89;29.38;100555.06;16124036;19;129288;-47
2023/03/06 11:34:46;;;;;;;4.07;0.82;;;;;;;20.78;29.75;100547.78;16123945;19;130540;-44
2023/03/06 11:40:16;;;;;;;7.13;1.17;;;;;;;20.66;29.87;100546.03;16124490;19;129993;-45
2023/03/06 11:46:01;;;;;;;6.28;1.30;;;;;;;20.55;30.08;100538.75;16121475;19;130139;-44
2023/03/06 11:51:29;;;;;;;7.43;1.17;;;;;;;20.44;29.83;100532.28;16121201;19;131109;-42
2023/03/06 11:57:01;;;;;;;6.65;1.70;;;;;;;20.39;30.06;100529.50;16124547;19;129397;-44
2023/03/06 12:02:31;;;;;;;8.38;1.33;;;;;;;20.31;30.37;100525.25;16117976;19;129854;-44
2023/03/06 12:08:11;;;;;;;8.68;1.20;;;;;;;20.25;30.69;100516.06;16115028;19;130479;-44
2023/03/06 12:13:53;;;;;;;7.90;1.55;;;;;;;20.18;30.46;100503.50;16118316;19;129343;-43
2023/03/06 12:19:27;;;;;;;4.03;1.08;;;;;;;20.13;31.07;100498.75;16117996;19;131773;-42
2023/03/06 12:25:02;;;;;;;14.38;1.25;;;;;;;20.23;31.05;100498.81;16116220;19;130171;-43
2023/03/06 12:30:55;;;;;;;4.85;0.88;;;;;;;20.37;31.01;100498.34;16116436;19;129412;-41
2023/03/06 12:36:25;;;;;;;4.22;1.05;;;;;;;20.49;31.13;100484.25;16115789;19;129833;-42
2023/03/06 12:41:53;;;;;;;17.35;1.60;;;;;;;20.62;30.60;100477.38;16118800;19;129586;-44
2023/03/06 12:47:19;;;;;;;3.33;1.27;;;;;;;20.65;31.63;100472.09;16117445;19;129454;-43
2023/03/06 12:52:41;;;;;;;6.65;1.25;;;;;;;20.63;32.53;100474.31;16115489;19;130129;-42
2023/03/06 12:58:28;;;;;;;4.40;1.17;;;;;;;20.58;33.25;100477.91;16115176;19;129569;-44
2023/03/06 13:03:59;;;;;;;5.75;1.00;;;;;;;20.49;33.87;100464.81;16117172;19;129707;-42
2023/03/06 13:09:26;;;;;;;8.65;1.38;;;;;;;20.39;33.64;100458.06;16116851;19;130996;-43
2023/03/06 13:14:55;;;;;;;5.32;1.67;;;;;;;20.31;33.78;100446.66;16116870;19;130325;-42
2023/03/06 13:20:26;;;;;;;5.15;1.35;;;;;;;20.23;34.36;100448.81;16117096;19;129591;-42
2023/03/06 13:25:49;;;;;;;7.88;1.58;;;;;;;20.15;34.35;100435.44;16118591;19;129405;-43
2023/03/06 13:31:13;;;;;;;6.65;1.02;;;;;;;20.08;34.69;100430.13;16115787;19;129540;-41
2023/03/06 13:36:47;;;;;;;8.25;0.90;;;;;;;20.03;35.36;100420.94;16113633;19;131209;-41
2023/03/06 13:42:27;;;;;;;2.00;0.80;;;;;;;19.99;35.72;100421.47;16121745;19;132236;-51
2023/03/06 13:47:55;;;;;;;3.10;1.00;;;;;;;19.94;35.66;100421.41;16126810;19;130862;-48
2023/03/06 13:53:56;;;;;;;7.95;1.48;;;;;;;19.86;35.84;100421.91;16124189;19;130149;-50
2023/03/06 13:59:51;;;;;;;4.07;1.30;;;;;;;19.82;35.37;100423.53;16127512;19;129539;-47
2023/03/06 14:05:41;;;;;;;4.43;1.42;;;;;;;19.76;35.72;100410.72;16127081;19;129355;-48
2023/03/06 14:11:18;;;;;;;6.53;1.90;;;;;;;19.71;35.25;100407.91;16122589;19;129298;-49
2023/03/06 14:16:41;;;;;;;6.55;2.08;;;;;;;19.65;34.83;100394.00;16129877;19;129512;-47
2023/03/06 14:22:16;;;;;;;5.40;2.03;;;;;;;19.63;34.86;100396.22;16127361;19;129317;-48
2023/03/06 14:27:48;;;;;;;9.15;2.55;;;;;;;19.62;34.64;100389.00;16122127;19;129466;-44
2023/03/06 14:33:10;;;;;;;11.38;2.70;;;;;;;19.58;34.33;100384.25;16124311;19;132977;-42
2023/03/06 14:38:36;;;;;;;4.93;2.42;;;;;;;19.54;34.13;100375.63;16127555;19;130132;-44
2023/03/06 14:44:07;;;;;;;6.13;2.22;;;;;;;19.51;34.71;100370.59;16128124;19;129303;-46
2023/03/06 14:49:29;;;;;;;8.48;2.35;;;;;;;19.45;34.63;100355.00;16125867;19;130187;-46
2023/03/06 14:54:51;;;;;;;6.93;1.77;;;;;;;19.41;35.24;100348.34;16121879;19;129652;-42
2023/03/06 15:00:18;;;;;;;2.75;1.58;;;;;;;19.36;35.45;100344.41;16127890;19;132236;-43
2023/03/06 15:05:43;;;;;;;4.40;2.00;;;;;;;19.33;35.64;100336.59;16124609;19;129230;-42
2023/03/06 15:11:06;;;;;;;2.93;1.40;;;;;;;19.27;35.95;100334.91;16124669;19;129732;-42
2023/03/06 15:16:29;;;;;;;6.90;1.98;;;;;;;19.24;36.19;100337.38;16125399;19;129463;-47
2023/03/06 15:21:51;;;;;;;6.03;1.90;;;;;;;19.21;36.37;100328.50;16122810;19;129438;-45
2023/03/06 15:27:18;;;;;;;7.30;2.20;;;;;;;19.19;35.78;100314.00;16124397;19;130918;-44
2023/03/06 15:32:41;;;;;;;7.72;2.42;;;;;;;19.15;35.69;100317.59;16123593;19;129481;-44
2023/03/06 15:38:41;;;;;;;6.65;2.50;;;;;;;19.11;35.96;100313.66;16122661;19;129527;-44
2023/03/06 15:44:11;;;;;;;6.05;2.50;;;;;;;19.07;35.60;100305.03;16123870;19;131961;-44
2023/03/06 15:49:36;;;;;;;10.07;2.70;;;;;;;19.01;35.86;100300.56;16120383;19;129910;-45
2023/03/06 15:54:58;;;;;;;6.70;2.90;;;;;;;18.95;35.46;100301.63;16120608;19;129441;-42
2023/03/06 16:00:29;;;;;;;12.77;3.22;;;;;;;18.92;35.75;100289.13;16118257;19;129222;-42
2023/03/06 16:05:51;;;;;;;12.75;3.00;;;;;;;18.88;35.91;100279.66;16117830;19;129137;-47
2023/03/06 16:11:22;;;;;;;11.23;3.38;;;;;;;18.83;35.86;100276.88;16119176;19;129764;-43
2023/03/06 16:16:50;;;;;;;12.73;3.80;;;;;;;18.81;35.91;100273.50;16117957;19;130227;-46
2023/03/06 16:22:12;;;;;;;11.70;3.05;;;;;;;18.78;35.87;100263.78;16119066;19;129512;-44
2023/03/06 16:27:34;;;;;;;8.45;3.20;;;;;;;18.75;36.55;100258.78;16119049;19;129883;-43
2023/03/06 16:32:56;;;;;;;6.43;2.80;;;;;;;18.71;36.53;100252.09;16119551;19;129597;-41
2023/03/06 16:38:18;;;;;;;5.35;3.17;;;;;;;18.69;36.63;100251.50;16118187;19;129364;-45
2023/03/06 16:43:40;;;;;;;7.13;3.17;;;;;;;18.65;36.33;100248.44;16120976;19;130146;-42
2023/03/06 16:49:01;;;;;;;9.02;3.40;;;;;;;18.63;36.72;100234.00;16119242;19;129349;-41
2023/03/06 16:54:24;;;;;;;4.70;3.63;;;;;;;18.61;36.78;100230.66;16119101;19;129898;-44
2023/03/06 16:59:46;;;;;;;7.50;3.70;;;;;;;18.58;36.79;100220.13;16117215;19;131172;-44
2023/03/06 17:05:09;;;;;;;5.45;3.15;;;;;;;18.54;36.79;100225.31;16111951;19;130474;-45
2023/03/06 17:10:31;;;;;;;6.10;3.53;;;;;;;18.51;36.62;100225.03;16114115;19;130140;-44
2023/03/06 17:15:58;;;;;;;4.30;3.08;;;;;;;18.50;36.97;100220.56;16115846;19;129847;-43
2023/03/06 17:21:20;;;;;;;8.43;3.90;;;;;;;18.49;37.15;100213.34;16116167;19;130312;-45
2023/03/06 17:26:43;;;;;;;13.05;4.72;;;;;;;18.48;37.64;100214.47;16113170;19;129423;-41
2023/03/06 17:32:05;;;;;;;20.48;5.38;;;;;;;18.43;38.09;100207.78;16113124;19;130396;-42
2023/03/06 17:37:27;;;;;;;36.92;12.50;;;;;;;18.52;38.07;100210.06;16110373;19;130875;-43
2023/03/06 17:42:50;;;;;;;30.02;9.70;;;;;;;18.87;38.14;100205.94;16108750;19;129502;-43
2023/03/06 17:48:12;;;;;;;27.10;9.00;;;;;;;19.44;38.55;100198.84;16110317;19;129640;-44
2023/03/06 17:53:34;;;;;;;31.00;9.52;;;;;;;19.91;38.09;100197.09;16109289;19;130022;-42
2023/03/06 17:58:56;;;;;;;25.58;8.32;;;;;;;20.39;37.64;100207.22;16109851;19;129472;-41
2023/03/06 18:04:18;;;;;;;22.48;8.45;;;;;;;20.81;37.25;100208.09;16107979;19;130169;-41
2023/03/06 18:09:41;;;;;;;22.30;7.93;;;;;;;21.16;37.67;100214.72;16110729;19;129690;-46
2023/03/06 18:15:03;;;;;;;42.55;8.30;;;;;;;21.34;37.29;100205.78;16108300;19;129421;-43
2023/03/06 18:20:25;;;;;;;31.88;6.65;;;;;;;21.41;37.40;100199.09;16102309;19;131131;-41
2023/03/06 18:25:47;;;;;;;44.80;7.25;;;;;;;21.36;38.29;100188.81;16109552;19;129927;-41
2023/03/06 18:31:29;;;;;;;31.20;6.93;;;;;;;21.27;38.67;100188.53;16127814;19;129676;-45
2023/03/06 18:36:54;;;;;;;26.23;5.83;;;;;;;21.13;38.82;100193.88;16124431;19;130169;-45
2023/03/06 18:42:17;;;;;;;22.42;5.25;;;;;;;20.98;38.82;100174.44;16117597;19;130495;-44
2023/03/06 18:47:39;;;;;;;36.10;6.22;;;;;;;20.82;39.59;100166.09;16122523;19;129904;-42
2023/03/06 18:53:01;;;;;;;16.52;5.43;;;;;;;20.73;40.35;100162.19;16122486;19;130251;-44
2023/03/06 18:58:23;;;;;;;14.82;5.20;;;;;;;20.79;40.40;100149.16;16121272;19;129233;-43
2023/03/06 19:03:45;;;;;;;13.15;4.00;;;;;;;21.03;39.66;100143.84;16123158;19;130290;-44
2023/03/06 19:09:07;;;;;;;16.50;3.90;;;;;;;21.29;39.56;100136.25;16117611;19;129804;-42
2023/03/06 19:14:29;;;;;;;12.63;3.97;;;;;;;21.54;39.34;100131.72;16114918;19;129983;-43
2023/03/06 19:19:51;;;;;;;16.08;3.75;;;;;;;21.74;39.17;100133.56;16120398;19;130888;-42
2023/03/06 19:25:13;;;;;;;14.43;3.30;;;;;;;21.83;38.73;100117.91;16121796;19;129529;-43
2023/03/06 19:30:39;;;;;;;11.18;2.97;;;;;;;21.89;39.04;100121.50;16119380;19;129947;-42
2023/03/06 19:36:01;;;;;;;21.08;3.10;;;;;;;21.95;39.54;100113.94;16118095;19;130696;-41
2023/03/06 19:41:24;;;;;;;16.65;2.92;;;;;;;22.07;38.94;100105.25;16116937;19;129194;-41
2023/03/06 19:46:45;;;;;;;12.40;2.88;;;;;;;22.22;38.87;100102.34;16119431;19;130290;-44
2023/03/06 19:52:07;;;;;;;8.20;2.40;;;;;;;22.38;38.49;100100.28;16117748;19;130685;-41
2023/03/06 19:57:29;;;;;;;14.60;2.30;;;;;;;22.49;38.66;100087.06;16113546;19;129889;-47
2023/03/06 20:02:51;;;;;;;6.07;1.90;;;;;;;22.57;38.28;100080.88;16115543;19;129566;-42
2023/03/06 20:08:12;;;;;;;8.55;2.00;;;;;;;22.64;38.46;100074.97;16115875;19;129646;-43
2023/03/06 20:13:35;;;;;;;14.35;2.53;;;;;;;22.66;38.60;100061.53;16113729;19;131541;-42
2023/03/06 20:18:59;;;;;;;12.75;1.95;;;;;;;22.62;38.60;100056.84;16116712;19;130269;-45
2023/03/06 20:24:21;;;;;;;15.23;1.88;;;;;;;22.52;38.66;100044.69;16114363;19;129640;-43
2023/03/06 20:29:44;;;;;;;12.05;2.00;;;;;;;22.43;38.84;100047.28;16117906;19;129656;-43
2023/03/06 20:35:06;;;;;;;7.60;1.88;;;;;;;22.33;39.00;100041.81;16114961;19;129938;-42
2023/03/06 20:40:28;;;;;;;9.40;2.17;;;;;;;22.21;39.14;100033.00;16112504;19;130239;-44
2023/03/06 20:45:58;;;;;;;7.82;1.98;;;;;;;22.09;39.53;100028.63;16117176;19;133540;-42
2023/03/06 20:51:27;;;;;;;10.35;1.90;;;;;;;21.96;39.78;100020.94;16114717;19;130778;-43
2023/03/06 20:56:49;;;;;;;6.97;1.92;;;;;;;21.82;39.43;100010.44;16115030;19;131852;-44
2023/03/06 21:02:13;;;;;;;11.02;1.35;;;;;;;21.73;39.49;100025.28;16111382;19;130544;-44
2023/03/06 21:07:35;;;;;;;5.93;1.25;;;;;;;21.66;39.78;100018.09;16114381;19;136555;-43
2023/03/06 21:12:57;;;;;;;9.25;1.42;;;;;;;21.62;39.75;100013.41;16097552;19;131469;-41
2023/03/06 21:18:18;;;;;;;11.18;1.83;;;;;;;21.56;39.84;100015.38;16106667;19;129590;-42
2023/03/06 21:23:40;;;;;;;12.48;1.95;;;;;;;21.54;39.57;100016.81;16109935;19;130486;-43
2023/03/06 21:29:02;;;;;;;14.45;1.60;;;;;;;21.48;39.78;100002.88;16111068;19;129536;-41
2023/03/06 21:34:24;;;;;;;10.85;1.50;;;;;;;21.38;39.11;99997.38;16106640;19;131514;-41
2023/03/06 21:39:46;;;;;;;19.38;1.75;;;;;;;21.30;39.06;100003.53;16110913;19;131430;-41
2023/03/06 21:45:08;;;;;;;19.05;2.13;;;;;;;21.20;38.89;100004.44;16110778;19;130782;-43
2023/03/06 21:50:30;;;;;;;11.68;1.48;;;;;;;21.09;38.95;100003.66;16112057;19;135575;-41
2023/03/06 21:55:52;;;;;;;12.18;1.85;;;;;;;21.00;39.06;99999.81;16114622;19;130395;-41
2023/03/06 22:01:19;;;;;;;23.33;1.55;;;;;;;20.90;38.85;99986.78;16115147;19;130012;-40
2023/03/06 22:06:41;;;;;;;10.32;1.15;;;;;;;20.80;38.88;99987.63;16121812;19;129947;-41
2023/03/06 22:12:03;;;;;;;3.97;1.23;;;;;;;20.68;38.81;99976.84;16123995;19;130820;-40
2023/03/06 22:17:25;;;;;;;7.13;1.75;;;;;;;20.56;38.63;99977.13;16128242;19;129922;-42
2023/03/06 22:22:46;;;;;;;3.92;1.10;;;;;;;20.48;38.91;99974.13;16124976;19;130187;-41
2023/03/06 22:28:08;;;;;;;3.30;0.93;;;;;;;20.39;38.91;99957.19;16124048;19;130727;-40
2023/03/06 22:33:30;;;;;;;5.05;0.82;;;;;;;20.31;38.95;99961.38;16125260;19;133209;-41
2023/03/06 22:38:55;;;;;;;7.78;1.10;;;;;;;20.24;39.21;99971.97;16124258;19;129762;-40
2023/03/06 22:44:18;;;;;;;5.63;1.00;;;;;;;20.16;38.93;99956.69;16123854;19;130468;-40
2023/03/06 22:49:40;;;;;;;5.43;0.98;;;;;;;20.10;38.80;99955.03;16122011;19;130783;-40
2023/03/06 22:55:01;;;;;;;6.85;0.85;;;;;;;20.03;38.72;99949.75;16125033;19;129077;-40
2023/03/06 23:00:24;;;;;;;4.15;0.95;;;;;;;19.96;38.83;99954.75;16122180;19;129556;-40
2023/03/06 23:05:46;;;;;;;3.53;0.63;;;;;;;19.91;38.80;99950.03;16118104;19;131218;-40
2023/03/06 23:11:12;;;;;;;4.53;1.00;;;;;;;19.84;38.74;99936.44;16124105;19;130325;-39
2023/03/06 23:16:34;;;;;;;1.92;0.82;;;;;;;19.79;38.71;99943.94;16123261;19;130012;-39
2023/03/06 23:21:56;;;;;;;2.15;0.60;;;;;;;19.75;38.42;99942.81;16119496;19;131406;-40
2023/03/06 23:27:18;;;;;;;2.63;0.75;;;;;;;19.68;38.30;99945.88;16115248;19;131462;-40
2023/03/06 23:32:40;;;;;;;2.60;0.60;;;;;;;19.64;38.71;99936.44;16118597;19;129817;-40
2023/03/06 23:38:02;;;;;;;2.25;0.50;;;;;;;19.61;38.45;99937.00;16117046;19;130662;-40
2023/03/06 23:43:24;;;;;;;2.47;0.70;;;;;;;19.56;38.30;99931.44;16118367;19;130419;-41
2023/03/06 23:48:46;;;;;;;1.85;0.50;;;;;;;19.51;38.15;99935.88;16119543;19;129740;-39
2023/03/06 23:54:09;;;;;;;1.77;0.65;;;;;;;19.48;38.53;99921.72;16118317;19;131211;-39
2023/03/06 23:59:30;;;;;;;2.47;0.60;;;;;;;19.43;38.26;99928.09;16119450;19;129253;-40
